sensor_id;sensor_type;location;lat;lon;timestamp;P1;durP1;ratioP1;P2;durP2;ratioP2
35312;SDS011;21425;50.454;30.466;2023-06-04T00:00:28;4.00;;;1.20;;
35312;SDS011;21425;50.454;30.466;2023-06-04T00:02:53;3.70;;;1.05;;
35312;SDS011;21425;50.454;30.466;2023-06-04T00:05:19;2.65;;;0.93;;
35312;SDS011;21425;50.454;30.466;2023-06-04T00:07:47;3.33;;;1.63;;
35312;SDS011;21425;50.454;30.466;2023-06-04T00:10:13;1.67;;;1.10;;
35312;SDS011;21425;50.454;30.466;2023-06-04T00:12:39;5.18;;;1.30;;
35312;SDS011;21425;50.454;30.466;2023-06-04T00:15:05;1.98;;;1.00;;
35312;SDS011;21425;50.454;30.466;2023-06-04T00:17:31;2.50;;;0.75;;
35312;SDS011;21425;50.454;30.466;2023-06-04T00:19:57;1.63;;;0.93;;
35312;SDS011;21425;50.454;30.466;2023-06-04T00:22:23;2.65;;;1.02;;
35312;SDS011;21425;50.454;30.466;2023-06-04T00:24:49;1.80;;;0.95;;
35312;SDS011;21425;50.454;30.466;2023-06-04T00:27:15;2.00;;;0.90;;
35312;SDS011;21425;50.454;30.466;2023-06-04T00:29:41;2.40;;;0.93;;
35312;SDS011;21425;50.454;30.466;2023-06-04T00:32:07;2.15;;;0.95;;
35312;SDS011;21425;50.454;30.466;2023-06-04T00:34:33;2.38;;;1.17;;
35312;SDS011;21425;50.454;30.466;2023-06-04T00:36:59;2.17;;;1.10;;
35312;SDS011;21425;50.454;30.466;2023-06-04T00:39:26;4.93;;;0.73;;
35312;SDS011;21425;50.454;30.466;2023-06-04T00:41:52;1.52;;;0.80;;
35312;SDS011;21425;50.454;30.466;2023-06-04T00:44:19;1.42;;;0.98;;
35312;SDS011;21425;50.454;30.466;2023-06-04T00:46:47;5.60;;;1.52;;
35312;SDS011;21425;50.454;30.466;2023-06-04T00:49:14;2.70;;;1.30;;
35312;SDS011;21425;50.454;30.466;2023-06-04T00:51:40;3.05;;;1.20;;
35312;SDS011;21425;50.454;30.466;2023-06-04T00:54:06;5.35;;;0.90;;
35312;SDS011;21425;50.454;30.466;2023-06-04T00:56:36;5.30;;;1.13;;
35312;SDS011;21425;50.454;30.466;2023-06-04T00:59:07;2.00;;;1.00;;
35312;SDS011;21425;50.454;30.466;2023-06-04T01:04:25;3.67;;;1.08;;
35312;SDS011;21425;50.454;30.466;2023-06-04T01:06:57;2.28;;;0.80;;
35312;SDS011;21425;50.454;30.466;2023-06-04T01:09:27;3.80;;;1.05;;
35312;SDS011;21425;50.454;30.466;2023-06-04T01:11:54;2.20;;;0.90;;
35312;SDS011;21425;50.454;30.466;2023-06-04T01:14:23;2.05;;;1.10;;
35312;SDS011;21425;50.454;30.466;2023-06-04T01:16:57;2.28;;;0.98;;
35312;SDS011;21425;50.454;30.466;2023-06-04T01:22:40;3.55;;;1.20;;
35312;SDS011;21425;50.454;30.466;2023-06-04T01:25:13;3.90;;;1.40;;
35312;SDS011;21425;50.454;30.466;2023-06-04T01:27:48;1.33;;;0.80;;
35312;SDS011;21425;50.454;30.466;2023-06-04T01:30:23;2.90;;;1.00;;
35312;SDS011;21425;50.454;30.466;2023-06-04T01:32:57;2.83;;;0.95;;
35312;SDS011;21425;50.454;30.466;2023-06-04T01:35:23;1.40;;;1.00;;
35312;SDS011;21425;50.454;30.466;2023-06-04T01:37:49;2.45;;;1.30;;
35312;SDS011;21425;50.454;30.466;2023-06-04T01:40:16;2.60;;;0.90;;
35312;SDS011;21425;50.454;30.466;2023-06-04T01:42:42;3.20;;;1.02;;
35312;SDS011;21425;50.454;30.466;2023-06-04T01:45:08;2.80;;;0.90;;
35312;SDS011;21425;50.454;30.466;2023-06-04T01:47:34;5.18;;;1.10;;
35312;SDS011;21425;50.454;30.466;2023-06-04T01:50:00;2.78;;;0.68;;
35312;SDS011;21425;50.454;30.466;2023-06-04T01:52:26;2.63;;;0.85;;
35312;SDS011;21425;50.454;30.466;2023-06-04T01:54:52;2.78;;;1.08;;
35312;SDS011;21425;50.454;30.466;2023-06-04T01:57:19;2.28;;;1.00;;
35312;SDS011;21425;50.454;30.466;2023-06-04T01:59:48;2.53;;;0.88;;
35312;SDS011;21425;50.454;30.466;2023-06-04T02:02:14;1.63;;;0.90;;
35312;SDS011;21425;50.454;30.466;2023-06-04T02:04:40;3.03;;;1.05;;
35312;SDS011;21425;50.454;30.466;2023-06-04T02:07:10;3.05;;;1.02;;
35312;SDS011;21425;50.454;30.466;2023-06-04T02:09:38;2.90;;;0.90;;
35312;SDS011;21425;50.454;30.466;2023-06-04T02:12:05;1.63;;;0.70;;
35312;SDS011;21425;50.454;30.466;2023-06-04T02:14:31;1.35;;;0.70;;
35312;SDS011;21425;50.454;30.466;2023-06-04T02:16:56;3.67;;;0.90;;
35312;SDS011;21425;50.454;30.466;2023-06-04T02:19:25;3.67;;;0.98;;
35312;SDS011;21425;50.454;30.466;2023-06-04T02:21:52;1.45;;;0.90;;
35312;SDS011;21425;50.454;30.466;2023-06-04T02:24:18;3.70;;;0.90;;
35312;SDS011;21425;50.454;30.466;2023-06-04T02:26:44;2.65;;;1.10;;
35312;SDS011;21425;50.454;30.466;2023-06-04T02:29:11;1.42;;;0.93;;
35312;SDS011;21425;50.454;30.466;2023-06-04T02:31:37;2.95;;;0.98;;
35312;SDS011;21425;50.454;30.466;2023-06-04T02:34:03;1.40;;;0.70;;
35312;SDS011;21425;50.454;30.466;2023-06-04T02:36:29;6.68;;;1.30;;
35312;SDS011;21425;50.454;30.466;2023-06-04T02:38:55;1.67;;;0.93;;
35312;SDS011;21425;50.454;30.466;2023-06-04T02:41:21;1.83;;;0.77;;
35312;SDS011;21425;50.454;30.466;2023-06-04T02:43:47;1.80;;;1.05;;
35312;SDS011;21425;50.454;30.466;2023-06-04T02:46:13;6.13;;;1.42;;
35312;SDS011;21425;50.454;30.466;2023-06-04T02:48:39;5.50;;;1.38;;
35312;SDS011;21425;50.454;30.466;2023-06-04T02:51:05;3.03;;;1.05;;
35312;SDS011;21425;50.454;30.466;2023-06-04T02:53:35;3.58;;;0.90;;
35312;SDS011;21425;50.454;30.466;2023-06-04T02:56:01;3.33;;;1.08;;
35312;SDS011;21425;50.454;30.466;2023-06-04T02:58:27;3.00;;;0.77;;
35312;SDS011;21425;50.454;30.466;2023-06-04T03:00:54;6.13;;;1.20;;
35312;SDS011;21425;50.454;30.466;2023-06-04T03:03:20;2.80;;;0.82;;
35312;SDS011;21425;50.454;30.466;2023-06-04T03:05:46;2.97;;;0.93;;
35312;SDS011;21425;50.454;30.466;2023-06-04T03:08:12;5.80;;;1.00;;
35312;SDS011;21425;50.454;30.466;2023-06-04T03:10:38;7.78;;;1.83;;
35312;SDS011;21425;50.454;30.466;2023-06-04T03:13:04;2.88;;;1.30;;
35312;SDS011;21425;50.454;30.466;2023-06-04T03:15:30;2.45;;;0.85;;
35312;SDS011;21425;50.454;30.466;2023-06-04T03:17:56;3.67;;;1.20;;
35312;SDS011;21425;50.454;30.466;2023-06-04T03:20:22;4.22;;;0.82;;
35312;SDS011;21425;50.454;30.466;2023-06-04T03:22:49;2.13;;;1.00;;
35312;SDS011;21425;50.454;30.466;2023-06-04T03:25:16;2.80;;;1.20;;
35312;SDS011;21425;50.454;30.466;2023-06-04T03:27:42;5.05;;;1.23;;
35312;SDS011;21425;50.454;30.466;2023-06-04T03:30:08;3.25;;;1.65;;
35312;SDS011;21425;50.454;30.466;2023-06-04T03:32:34;4.13;;;1.00;;
35312;SDS011;21425;50.454;30.466;2023-06-04T03:35:01;1.67;;;0.95;;
35312;SDS011;21425;50.454;30.466;2023-06-04T03:37:28;4.93;;;1.10;;
35312;SDS011;21425;50.454;30.466;2023-06-04T03:39:54;5.50;;;1.83;;
35312;SDS011;21425;50.454;30.466;2023-06-04T03:42:20;2.80;;;1.50;;
35312;SDS011;21425;50.454;30.466;2023-06-04T03:44:46;4.00;;;1.20;;
35312;SDS011;21425;50.454;30.466;2023-06-04T03:47:12;3.80;;;1.33;;
35312;SDS011;21425;50.454;30.466;2023-06-04T03:49:38;2.95;;;1.40;;
35312;SDS011;21425;50.454;30.466;2023-06-04T03:52:04;3.10;;;1.13;;
35312;SDS011;21425;50.454;30.466;2023-06-04T03:54:30;2.85;;;1.20;;
35312;SDS011;21425;50.454;30.466;2023-06-04T03:56:56;1.75;;;0.93;;
35312;SDS011;21425;50.454;30.466;2023-06-04T03:59:22;3.53;;;1.42;;
35312;SDS011;21425;50.454;30.466;2023-06-04T04:01:48;3.33;;;1.50;;
35312;SDS011;21425;50.454;30.466;2023-06-04T04:04:14;5.35;;;2.25;;
35312;SDS011;21425;50.454;30.466;2023-06-04T04:06:40;4.38;;;2.28;;
35312;SDS011;21425;50.454;30.466;2023-06-04T04:09:06;7.03;;;2.80;;
35312;SDS011;21425;50.454;30.466;2023-06-04T04:11:32;5.20;;;2.00;;
35312;SDS011;21425;50.454;30.466;2023-06-04T04:13:58;4.63;;;2.15;;
35312;SDS011;21425;50.454;30.466;2023-06-04T04:16:24;6.32;;;2.10;;
35312;SDS011;21425;50.454;30.466;2023-06-04T04:18:50;6.88;;;2.30;;
35312;SDS011;21425;50.454;30.466;2023-06-04T04:21:16;6.20;;;2.38;;
35312;SDS011;21425;50.454;30.466;2023-06-04T04:23:44;5.40;;;1.88;;
35312;SDS011;21425;50.454;30.466;2023-06-04T04:26:10;3.97;;;2.22;;
35312;SDS011;21425;50.454;30.466;2023-06-04T04:28:36;5.53;;;2.40;;
35312;SDS011;21425;50.454;30.466;2023-06-04T04:31:03;3.50;;;1.27;;
35312;SDS011;21425;50.454;30.466;2023-06-04T04:33:29;3.60;;;1.33;;
35312;SDS011;21425;50.454;30.466;2023-06-04T04:36:04;4.15;;;1.42;;
35312;SDS011;21425;50.454;30.466;2023-06-04T04:38:30;4.80;;;1.42;;
35312;SDS011;21425;50.454;30.466;2023-06-04T04:40:58;3.25;;;1.40;;
35312;SDS011;21425;50.454;30.466;2023-06-04T04:43:32;3.88;;;1.42;;
35312;SDS011;21425;50.454;30.466;2023-06-04T04:45:59;6.63;;;1.67;;
35312;SDS011;21425;50.454;30.466;2023-06-04T04:48:25;4.20;;;1.40;;
35312;SDS011;21425;50.454;30.466;2023-06-04T04:50:51;3.72;;;1.60;;
35312;SDS011;21425;50.454;30.466;2023-06-04T04:53:17;7.47;;;1.50;;
35312;SDS011;21425;50.454;30.466;2023-06-04T04:55:43;5.45;;;1.30;;
35312;SDS011;21425;50.454;30.466;2023-06-04T04:58:09;3.92;;;1.58;;
35312;SDS011;21425;50.454;30.466;2023-06-04T05:00:35;3.42;;;1.30;;
35312;SDS011;21425;50.454;30.466;2023-06-04T05:03:01;4.88;;;1.40;;
35312;SDS011;21425;50.454;30.466;2023-06-04T05:05:27;5.38;;;1.27;;
35312;SDS011;21425;50.454;30.466;2023-06-04T05:07:53;4.93;;;1.30;;
35312;SDS011;21425;50.454;30.466;2023-06-04T05:10:19;2.65;;;1.40;;
35312;SDS011;21425;50.454;30.466;2023-06-04T05:12:55;4.78;;;1.40;;
35312;SDS011;21425;50.454;30.466;2023-06-04T05:15:22;3.75;;;1.50;;
35312;SDS011;21425;50.454;30.466;2023-06-04T05:17:49;5.72;;;1.90;;
35312;SDS011;21425;50.454;30.466;2023-06-04T05:20:17;5.05;;;1.65;;
35312;SDS011;21425;50.454;30.466;2023-06-04T05:22:44;4.85;;;1.50;;
35312;SDS011;21425;50.454;30.466;2023-06-04T05:25:10;6.20;;;1.60;;
35312;SDS011;21425;50.454;30.466;2023-06-04T05:27:36;5.28;;;1.75;;
35312;SDS011;21425;50.454;30.466;2023-06-04T05:30:03;5.05;;;1.52;;
35312;SDS011;21425;50.454;30.466;2023-06-04T05:32:29;4.78;;;1.40;;
35312;SDS011;21425;50.454;30.466;2023-06-04T05:34:57;3.05;;;1.50;;
35312;SDS011;21425;50.454;30.466;2023-06-04T05:37:24;5.57;;;1.20;;
35312;SDS011;21425;50.454;30.466;2023-06-04T05:39:51;4.60;;;1.65;;
35312;SDS011;21425;50.454;30.466;2023-06-04T05:42:17;3.65;;;1.00;;
35312;SDS011;21425;50.454;30.466;2023-06-04T05:44:43;2.63;;;1.35;;
35312;SDS011;21425;50.454;30.466;2023-06-04T05:47:10;3.83;;;1.40;;
35312;SDS011;21425;50.454;30.466;2023-06-04T05:49:36;2.60;;;1.10;;
35312;SDS011;21425;50.454;30.466;2023-06-04T05:52:02;1.98;;;0.95;;
35312;SDS011;21425;50.454;30.466;2023-06-04T05:54:28;4.30;;;0.90;;
35312;SDS011;21425;50.454;30.466;2023-06-04T05:56:55;1.83;;;1.00;;
35312;SDS011;21425;50.454;30.466;2023-06-04T05:59:21;4.97;;;1.15;;
35312;SDS011;21425;50.454;30.466;2023-06-04T06:01:47;2.65;;;1.30;;
35312;SDS011;21425;50.454;30.466;2023-06-04T06:04:13;2.20;;;0.73;;
35312;SDS011;21425;50.454;30.466;2023-06-04T06:06:40;1.48;;;0.70;;
35312;SDS011;21425;50.454;30.466;2023-06-04T06:09:09;2.63;;;1.23;;
35312;SDS011;21425;50.454;30.466;2023-06-04T06:11:35;1.90;;;0.90;;
35312;SDS011;21425;50.454;30.466;2023-06-04T06:14:02;2.55;;;1.02;;
35312;SDS011;21425;50.454;30.466;2023-06-04T06:16:28;2.80;;;0.73;;
35312;SDS011;21425;50.454;30.466;2023-06-04T06:18:53;1.15;;;0.57;;
35312;SDS011;21425;50.454;30.466;2023-06-04T06:21:20;7.85;;;0.60;;
35312;SDS011;21425;50.454;30.466;2023-06-04T06:23:46;1.00;;;0.47;;
35312;SDS011;21425;50.454;30.466;2023-06-04T06:26:12;2.17;;;0.63;;
35312;SDS011;21425;50.454;30.466;2023-06-04T06:28:38;4.18;;;0.65;;
35312;SDS011;21425;50.454;30.466;2023-06-04T06:31:04;1.50;;;0.70;;
35312;SDS011;21425;50.454;30.466;2023-06-04T06:33:31;1.35;;;0.50;;
35312;SDS011;21425;50.454;30.466;2023-06-04T06:35:57;2.10;;;0.50;;
35312;SDS011;21425;50.454;30.466;2023-06-04T06:38:26;1.48;;;0.60;;
35312;SDS011;21425;50.454;30.466;2023-06-04T06:40:52;1.13;;;0.57;;
35312;SDS011;21425;50.454;30.466;2023-06-04T06:43:18;1.20;;;0.63;;
35312;SDS011;21425;50.454;30.466;2023-06-04T06:45:44;1.38;;;0.70;;
35312;SDS011;21425;50.454;30.466;2023-06-04T06:48:10;1.10;;;0.60;;
35312;SDS011;21425;50.454;30.466;2023-06-04T06:50:36;1.60;;;0.88;;
35312;SDS011;21425;50.454;30.466;2023-06-04T06:53:02;1.38;;;0.57;;
35312;SDS011;21425;50.454;30.466;2023-06-04T06:55:28;1.58;;;0.68;;
35312;SDS011;21425;50.454;30.466;2023-06-04T06:57:54;1.33;;;0.40;;
35312;SDS011;21425;50.454;30.466;2023-06-04T07:00:20;1.27;;;0.60;;
35312;SDS011;21425;50.454;30.466;2023-06-04T07:02:47;2.17;;;0.68;;
35312;SDS011;21425;50.454;30.466;2023-06-04T07:05:13;3.05;;;0.63;;
35312;SDS011;21425;50.454;30.466;2023-06-04T07:07:40;1.25;;;0.40;;
35312;SDS011;21425;50.454;30.466;2023-06-04T07:10:06;1.20;;;0.60;;
35312;SDS011;21425;50.454;30.466;2023-06-04T07:12:32;2.78;;;0.40;;
35312;SDS011;21425;50.454;30.466;2023-06-04T07:14:58;0.82;;;0.50;;
35312;SDS011;21425;50.454;30.466;2023-06-04T07:17:24;1.45;;;0.60;;
35312;SDS011;21425;50.454;30.466;2023-06-04T07:19:50;1.20;;;0.68;;
35312;SDS011;21425;50.454;30.466;2023-06-04T07:22:16;0.90;;;0.50;;
35312;SDS011;21425;50.454;30.466;2023-06-04T07:24:42;0.85;;;0.40;;
35312;SDS011;21425;50.454;30.466;2023-06-04T07:27:12;1.40;;;0.50;;
35312;SDS011;21425;50.454;30.466;2023-06-04T07:29:38;8.38;;;0.75;;
35312;SDS011;21425;50.454;30.466;2023-06-04T07:32:04;1.52;;;0.40;;
35312;SDS011;21425;50.454;30.466;2023-06-04T07:34:30;1.15;;;0.60;;
35312;SDS011;21425;50.454;30.466;2023-06-04T07:36:56;1.25;;;0.70;;
35312;SDS011;21425;50.454;30.466;2023-06-04T07:39:22;2.80;;;0.60;;
35312;SDS011;21425;50.454;30.466;2023-06-04T07:41:48;2.25;;;0.77;;
35312;SDS011;21425;50.454;30.466;2023-06-04T07:44:14;1.52;;;0.60;;
35312;SDS011;21425;50.454;30.466;2023-06-04T07:46:40;3.10;;;0.55;;
35312;SDS011;21425;50.454;30.466;2023-06-04T07:49:06;2.53;;;0.70;;
35312;SDS011;21425;50.454;30.466;2023-06-04T07:51:32;1.38;;;0.77;;
35312;SDS011;21425;50.454;30.466;2023-06-04T07:53:58;1.70;;;0.73;;
35312;SDS011;21425;50.454;30.466;2023-06-04T07:56:24;2.38;;;0.70;;
35312;SDS011;21425;50.454;30.466;2023-06-04T07:58:50;2.15;;;0.80;;
35312;SDS011;21425;50.454;30.466;2023-06-04T08:01:16;1.48;;;0.65;;
35312;SDS011;21425;50.454;30.466;2023-06-04T08:03:42;3.28;;;0.85;;
35312;SDS011;21425;50.454;30.466;2023-06-04T08:06:09;2.03;;;0.80;;
35312;SDS011;21425;50.454;30.466;2023-06-04T08:08:35;2.15;;;0.60;;
35312;SDS011;21425;50.454;30.466;2023-06-04T08:11:01;5.63;;;1.02;;
35312;SDS011;21425;50.454;30.466;2023-06-04T08:13:27;2.63;;;0.60;;
35312;SDS011;21425;50.454;30.466;2023-06-04T08:15:53;1.85;;;0.50;;
35312;SDS011;21425;50.454;30.466;2023-06-04T08:18:19;2.90;;;0.85;;
35312;SDS011;21425;50.454;30.466;2023-06-04T08:20:45;7.82;;;0.77;;
35312;SDS011;21425;50.454;30.466;2023-06-04T08:23:11;4.10;;;0.90;;
35312;SDS011;21425;50.454;30.466;2023-06-04T08:25:37;3.42;;;0.70;;
35312;SDS011;21425;50.454;30.466;2023-06-04T08:28:03;2.38;;;0.90;;
35312;SDS011;21425;50.454;30.466;2023-06-04T08:30:29;3.90;;;0.68;;
35312;SDS011;21425;50.454;30.466;2023-06-04T08:32:55;6.43;;;1.30;;
35312;SDS011;21425;50.454;30.466;2023-06-04T08:35:21;2.30;;;0.65;;
35312;SDS011;21425;50.454;30.466;2023-06-04T08:37:47;1.20;;;0.43;;
35312;SDS011;21425;50.454;30.466;2023-06-04T08:40:13;4.88;;;0.90;;
35312;SDS011;21425;50.454;30.466;2023-06-04T08:42:42;1.80;;;0.60;;
35312;SDS011;21425;50.454;30.466;2023-06-04T08:45:10;2.50;;;1.13;;
35312;SDS011;21425;50.454;30.466;2023-06-04T08:47:38;2.15;;;1.10;;
35312;SDS011;21425;50.454;30.466;2023-06-04T08:50:06;2.80;;;1.30;;
35312;SDS011;21425;50.454;30.466;2023-06-04T08:52:34;2.38;;;0.75;;
35312;SDS011;21425;50.454;30.466;2023-06-04T08:55:01;2.60;;;0.77;;
35312;SDS011;21425;50.454;30.466;2023-06-04T08:57:27;1.80;;;0.70;;
35312;SDS011;21425;50.454;30.466;2023-06-04T08:59:53;1.58;;;0.70;;
35312;SDS011;21425;50.454;30.466;2023-06-04T09:02:19;1.02;;;0.70;;
35312;SDS011;21425;50.454;30.466;2023-06-04T09:04:45;4.32;;;0.68;;
35312;SDS011;21425;50.454;30.466;2023-06-04T09:07:12;8.27;;;0.90;;
35312;SDS011;21425;50.454;30.466;2023-06-04T09:09:39;1.42;;;0.82;;
35312;SDS011;21425;50.454;30.466;2023-06-04T09:12:10;3.03;;;0.70;;
35312;SDS011;21425;50.454;30.466;2023-06-04T09:14:37;1.40;;;0.68;;
35312;SDS011;21425;50.454;30.466;2023-06-04T09:17:03;2.15;;;0.70;;
35312;SDS011;21425;50.454;30.466;2023-06-04T09:19:30;0.93;;;0.70;;
35312;SDS011;21425;50.454;30.466;2023-06-04T09:21:57;3.80;;;0.80;;
35312;SDS011;21425;50.454;30.466;2023-06-04T09:24:24;3.97;;;0.80;;
35312;SDS011;21425;50.454;30.466;2023-06-04T09:26:51;2.97;;;0.70;;
35312;SDS011;21425;50.454;30.466;2023-06-04T09:29:17;2.50;;;0.80;;
35312;SDS011;21425;50.454;30.466;2023-06-04T09:31:47;2.67;;;0.80;;
35312;SDS011;21425;50.454;30.466;2023-06-04T09:34:13;3.13;;;1.08;;
35312;SDS011;21425;50.454;30.466;2023-06-04T09:36:42;1.30;;;0.60;;
35312;SDS011;21425;50.454;30.466;2023-06-04T09:39:17;2.22;;;0.80;;
35312;SDS011;21425;50.454;30.466;2023-06-04T09:41:44;4.60;;;0.68;;
35312;SDS011;21425;50.454;30.466;2023-06-04T09:44:10;2.55;;;0.77;;
35312;SDS011;21425;50.454;30.466;2023-06-04T09:46:37;1.15;;;0.60;;
35312;SDS011;21425;50.454;30.466;2023-06-04T09:49:03;3.00;;;1.05;;
35312;SDS011;21425;50.454;30.466;2023-06-04T09:51:30;2.85;;;0.80;;
35312;SDS011;21425;50.454;30.466;2023-06-04T09:53:57;2.85;;;0.73;;
35312;SDS011;21425;50.454;30.466;2023-06-04T09:56:23;4.30;;;0.95;;
35312;SDS011;21425;50.454;30.466;2023-06-04T09:58:55;2.38;;;0.80;;
35312;SDS011;21425;50.454;30.466;2023-06-04T10:01:23;3.58;;;1.10;;
35312;SDS011;21425;50.454;30.466;2023-06-04T10:03:50;2.13;;;0.90;;
35312;SDS011;21425;50.454;30.466;2023-06-04T10:06:18;1.25;;;0.80;;
35312;SDS011;21425;50.454;30.466;2023-06-04T10:08:45;1.52;;;0.70;;
35312;SDS011;21425;50.454;30.466;2023-06-04T10:11:12;4.40;;;1.00;;
35312;SDS011;21425;50.454;30.466;2023-06-04T10:13:48;1.50;;;0.80;;
35312;SDS011;21425;50.454;30.466;2023-06-04T10:16:17;3.38;;;1.10;;
35312;SDS011;21425;50.454;30.466;2023-06-04T10:18:45;2.33;;;1.10;;
35312;SDS011;21425;50.454;30.466;2023-06-04T10:21:12;2.33;;;0.85;;
35312;SDS011;21425;50.454;30.466;2023-06-04T10:23:40;3.38;;;1.10;;
35312;SDS011;21425;50.454;30.466;2023-06-04T10:26:06;1.35;;;0.85;;
35312;SDS011;21425;50.454;30.466;2023-06-04T10:28:33;1.65;;;0.80;;
35312;SDS011;21425;50.454;30.466;2023-06-04T10:30:59;5.13;;;1.10;;
35312;SDS011;21425;50.454;30.466;2023-06-04T10:33:26;3.22;;;0.90;;
35312;SDS011;21425;50.454;30.466;2023-06-04T10:35:53;2.03;;;1.00;;
35312;SDS011;21425;50.454;30.466;2023-06-04T10:38:23;1.58;;;0.80;;
35312;SDS011;21425;50.454;30.466;2023-06-04T10:40:49;2.45;;;1.38;;
35312;SDS011;21425;50.454;30.466;2023-06-04T10:43:15;4.13;;;1.17;;
35312;SDS011;21425;50.454;30.466;2023-06-04T10:45:41;1.13;;;0.80;;
35312;SDS011;21425;50.454;30.466;2023-06-04T10:48:08;1.92;;;1.10;;
35312;SDS011;21425;50.454;30.466;2023-06-04T10:50:35;2.95;;;1.00;;
35312;SDS011;21425;50.454;30.466;2023-06-04T10:53:01;1.48;;;1.00;;
35312;SDS011;21425;50.454;30.466;2023-06-04T10:55:28;1.77;;;1.13;;
35312;SDS011;21425;50.454;30.466;2023-06-04T10:57:55;1.65;;;1.05;;
35312;SDS011;21425;50.454;30.466;2023-06-04T11:00:22;5.50;;;1.17;;
35312;SDS011;21425;50.454;30.466;2023-06-04T11:02:53;2.17;;;1.17;;
35312;SDS011;21425;50.454;30.466;2023-06-04T11:05:33;2.00;;;1.00;;
35312;SDS011;21425;50.454;30.466;2023-06-04T11:07:59;4.57;;;1.70;;
35312;SDS011;21425;50.454;30.466;2023-06-04T11:10:30;3.72;;;1.13;;
35312;SDS011;21425;50.454;30.466;2023-06-04T11:12:58;2.58;;;1.25;;
35312;SDS011;21425;50.454;30.466;2023-06-04T11:15:24;4.55;;;1.70;;
35312;SDS011;21425;50.454;30.466;2023-06-04T11:17:54;2.92;;;1.48;;
35312;SDS011;21425;50.454;30.466;2023-06-04T11:20:20;4.28;;;1.30;;
35312;SDS011;21425;50.454;30.466;2023-06-04T11:22:57;9.43;;;1.40;;
35312;SDS011;21425;50.454;30.466;2023-06-04T11:25:28;1.65;;;0.98;;
35312;SDS011;21425;50.454;30.466;2023-06-04T11:27:55;3.08;;;1.30;;
35312;SDS011;21425;50.454;30.466;2023-06-04T11:30:23;2.35;;;1.35;;
35312;SDS011;21425;50.454;30.466;2023-06-04T11:32:49;2.83;;;1.40;;
35312;SDS011;21425;50.454;30.466;2023-06-04T11:35:15;2.47;;;1.42;;
35312;SDS011;21425;50.454;30.466;2023-06-04T11:37:41;3.25;;;1.70;;
35312;SDS011;21425;50.454;30.466;2023-06-04T11:40:18;4.00;;;1.55;;
35312;SDS011;21425;50.454;30.466;2023-06-04T11:42:45;4.35;;;1.58;;
35312;SDS011;21425;50.454;30.466;2023-06-04T11:45:15;3.33;;;1.63;;
35312;SDS011;21425;50.454;30.466;2023-06-04T11:47:46;3.42;;;1.33;;
35312;SDS011;21425;50.454;30.466;2023-06-04T11:50:12;5.18;;;1.50;;
35312;SDS011;21425;50.454;30.466;2023-06-04T11:52:38;4.60;;;1.55;;
35312;SDS011;21425;50.454;30.466;2023-06-04T11:55:07;1.35;;;0.98;;
35312;SDS011;21425;50.454;30.466;2023-06-04T11:57:34;5.40;;;1.60;;
35312;SDS011;21425;50.454;30.466;2023-06-04T12:00:01;4.22;;;1.20;;
35312;SDS011;21425;50.454;30.466;2023-06-04T12:02:27;2.40;;;1.30;;
35312;SDS011;21425;50.454;30.466;2023-06-04T12:04:53;3.97;;;1.20;;
35312;SDS011;21425;50.454;30.466;2023-06-04T12:07:19;3.00;;;1.63;;
35312;SDS011;21425;50.454;30.466;2023-06-04T12:09:49;2.33;;;1.10;;
35312;SDS011;21425;50.454;30.466;2023-06-04T12:12:20;5.93;;;1.63;;
35312;SDS011;21425;50.454;30.466;2023-06-04T12:14:47;4.23;;;1.50;;
35312;SDS011;21425;50.454;30.466;2023-06-04T12:17:13;6.35;;;1.45;;
35312;SDS011;21425;50.454;30.466;2023-06-04T12:19:49;6.63;;;1.35;;
35312;SDS011;21425;50.454;30.466;2023-06-04T12:22:15;1.92;;;1.20;;
35312;SDS011;21425;50.454;30.466;2023-06-04T12:24:48;3.88;;;1.30;;
35312;SDS011;21425;50.454;30.466;2023-06-04T12:27:18;3.10;;;1.60;;
35312;SDS011;21425;50.454;30.466;2023-06-04T12:30:00;3.63;;;1.30;;
35312;SDS011;21425;50.454;30.466;2023-06-04T12:32:27;2.45;;;1.58;;
35312;SDS011;21425;50.454;30.466;2023-06-04T12:34:53;2.20;;;1.48;;
35312;SDS011;21425;50.454;30.466;2023-06-04T12:37:19;1.90;;;1.02;;
35312;SDS011;21425;50.454;30.466;2023-06-04T12:39:45;3.00;;;1.38;;
35312;SDS011;21425;50.454;30.466;2023-06-04T12:42:12;3.95;;;1.30;;
35312;SDS011;21425;50.454;30.466;2023-06-04T12:44:38;2.15;;;1.20;;
35312;SDS011;21425;50.454;30.466;2023-06-04T12:47:05;4.53;;;1.30;;
35312;SDS011;21425;50.454;30.466;2023-06-04T12:49:31;3.25;;;1.50;;
35312;SDS011;21425;50.454;30.466;2023-06-04T12:51:57;2.67;;;1.05;;
35312;SDS011;21425;50.454;30.466;2023-06-04T12:54:23;6.85;;;1.73;;
35312;SDS011;21425;50.454;30.466;2023-06-04T12:56:49;3.35;;;1.23;;
35312;SDS011;21425;50.454;30.466;2023-06-04T12:59:16;5.72;;;1.40;;
35312;SDS011;21425;50.454;30.466;2023-06-04T13:01:42;3.78;;;1.30;;
35312;SDS011;21425;50.454;30.466;2023-06-04T13:04:08;1.70;;;1.08;;
35312;SDS011;21425;50.454;30.466;2023-06-04T13:06:34;2.22;;;1.20;;
35312;SDS011;21425;50.454;30.466;2023-06-04T13:09:03;3.63;;;1.30;;
35312;SDS011;21425;50.454;30.466;2023-06-04T13:11:39;5.47;;;0.93;;
35312;SDS011;21425;50.454;30.466;2023-06-04T13:14:05;3.20;;;1.20;;
35312;SDS011;21425;50.454;30.466;2023-06-04T13:16:31;1.77;;;1.00;;
35312;SDS011;21425;50.454;30.466;2023-06-04T13:18:57;3.33;;;1.05;;
35312;SDS011;21425;50.454;30.466;2023-06-04T13:21:23;7.47;;;1.30;;
35312;SDS011;21425;50.454;30.466;2023-06-04T13:23:49;2.95;;;0.90;;
35312;SDS011;21425;50.454;30.466;2023-06-04T13:26:16;3.20;;;1.10;;
35312;SDS011;21425;50.454;30.466;2023-06-04T13:28:42;6.35;;;1.20;;
35312;SDS011;21425;50.454;30.466;2023-06-04T13:31:08;5.45;;;1.20;;
35312;SDS011;21425;50.454;30.466;2023-06-04T13:33:34;3.65;;;1.30;;
35312;SDS011;21425;50.454;30.466;2023-06-04T13:36:03;1.98;;;0.90;;
35312;SDS011;21425;50.454;30.466;2023-06-04T13:38:30;2.67;;;1.00;;
35312;SDS011;21425;50.454;30.466;2023-06-04T13:40:56;1.58;;;0.90;;
35312;SDS011;21425;50.454;30.466;2023-06-04T13:43:22;4.40;;;1.10;;
35312;SDS011;21425;50.454;30.466;2023-06-04T13:45:47;2.42;;;0.90;;
35312;SDS011;21425;50.454;30.466;2023-06-04T13:48:14;1.90;;;0.80;;
35312;SDS011;21425;50.454;30.466;2023-06-04T13:50:40;1.67;;;1.13;;
35312;SDS011;21425;50.454;30.466;2023-06-04T13:53:07;5.05;;;0.93;;
35312;SDS011;21425;50.454;30.466;2023-06-04T13:55:33;2.92;;;0.85;;
35312;SDS011;21425;50.454;30.466;2023-06-04T13:57:59;1.58;;;0.90;;
35312;SDS011;21425;50.454;30.466;2023-06-04T14:00:25;5.55;;;1.05;;
35312;SDS011;21425;50.454;30.466;2023-06-04T14:02:52;1.50;;;0.80;;
35312;SDS011;21425;50.454;30.466;2023-06-04T14:05:19;1.63;;;1.10;;
35312;SDS011;21425;50.454;30.466;2023-06-04T14:07:45;3.67;;;0.95;;
35312;SDS011;21425;50.454;30.466;2023-06-04T14:10:11;1.98;;;0.90;;
35312;SDS011;21425;50.454;30.466;2023-06-04T14:12:38;3.20;;;0.95;;
35312;SDS011;21425;50.454;30.466;2023-06-04T14:15:05;1.70;;;1.10;;
35312;SDS011;21425;50.454;30.466;2023-06-04T14:17:32;2.60;;;1.00;;
35312;SDS011;21425;50.454;30.466;2023-06-04T14:19:59;2.85;;;1.02;;
35312;SDS011;21425;50.454;30.466;2023-06-04T14:22:25;1.38;;;0.93;;
35312;SDS011;21425;50.454;30.466;2023-06-04T14:24:50;3.13;;;1.13;;
35312;SDS011;21425;50.454;30.466;2023-06-04T14:27:16;4.00;;;1.05;;
35312;SDS011;21425;50.454;30.466;2023-06-04T14:29:42;2.67;;;1.00;;
35312;SDS011;21425;50.454;30.466;2023-06-04T14:32:10;6.50;;;0.90;;
35312;SDS011;21425;50.454;30.466;2023-06-04T14:34:35;1.20;;;0.70;;
35312;SDS011;21425;50.454;30.466;2023-06-04T14:37:02;1.63;;;0.80;;